AAL6432 KSFO-KLAX
Flight info
| Callsign | AAL6432 |
|---|---|
| Flight time | 0h 57m |
| Altitude | 23000 |
| Route | WESLA5 SUSEY EBAYE BURGL IRNMN2 |
| Aircraft | B738/M-SDE2E3FGHIRWXY/LB1 |
Departure
| Time | 2026-05-03 21:10 |
|---|---|
| Airport | San Francisco International Airport (KSFO) |
Arrival
| Time | 2026-05-03 22:07 |
|---|---|
| Airport | Los Angeles International Airport (KLAX) |
| Time | Latitude | Longitude | Altitude | Speed | Heading |
|---|---|---|---|---|---|
| 2026-05-03 20:42 | 37.61029 | -122.38552 | 20 ft | 0 kts | 307° |
| 2026-05-03 20:52 | 37.61029 | -122.38550 | 20 ft | 2 kts | 307° |
| 2026-05-03 20:52 | 37.61019 | -122.38535 | 20 ft | 2 kts | 307° |
| 2026-05-03 20:52 | 37.61015 | -122.38527 | 23 ft | 2 kts | 307° |
| 2026-05-03 20:52 | 37.61005 | -122.38510 | 23 ft | 2 kts | 308° |
| 2026-05-03 20:53 | 37.60990 | -122.38490 | 20 ft | 2 kts | 329° |
| 2026-05-03 20:53 | 37.60981 | -122.38484 | 20 ft | 2 kts | 352° |
| 2026-05-03 20:53 | 37.60969 | -122.38485 | 21 ft | 1 kts | 31° |
| 2026-05-03 20:53 | 37.60963 | -122.38490 | 21 ft | 1 kts | 42° |
| 2026-05-03 20:54 | 37.60962 | -122.38492 | 20 ft | 0 kts | 42° |
| 2026-05-03 20:57 | 37.60962 | -122.38491 | 20 ft | 0 kts | 42° |
| 2026-05-03 20:58 | 37.60962 | -122.38489 | 21 ft | 0 kts | 63° |
| 2026-05-03 20:58 | 37.60961 | -122.38466 | 22 ft | 7 kts | 98° |
| 2026-05-03 20:58 | 37.60949 | -122.38394 | 20 ft | 9 kts | 86° |
| 2026-05-03 20:58 | 37.60979 | -122.38330 | 21 ft | 9 kts | 40° |
| 2026-05-03 20:59 | 37.61030 | -122.38290 | 20 ft | 8 kts | 29° |
| 2026-05-03 20:59 | 37.61081 | -122.38255 | 20 ft | 8 kts | 27° |
| 2026-05-03 20:59 | 37.61131 | -122.38222 | 20 ft | 8 kts | 27° |
| 2026-05-03 20:59 | 37.61180 | -122.38190 | 20 ft | 8 kts | 27° |
| 2026-05-03 21:00 | 37.61231 | -122.38156 | 20 ft | 8 kts | 27° |
| 2026-05-03 21:00 | 37.61266 | -122.38133 | 21 ft | 9 kts | 27° |
| 2026-05-03 21:00 | 37.61339 | -122.38086 | 20 ft | 9 kts | 27° |
| 2026-05-03 21:00 | 37.61395 | -122.38049 | 20 ft | 9 kts | 27° |
| 2026-05-03 21:01 | 37.61454 | -122.38010 | 22 ft | 10 kts | 27° |
| 2026-05-03 21:01 | 37.61514 | -122.37971 | 20 ft | 10 kts | 27° |
| 2026-05-03 21:01 | 37.61576 | -122.37931 | 20 ft | 10 kts | 27° |
| 2026-05-03 21:01 | 37.61639 | -122.37892 | 20 ft | 10 kts | 22° |
| 2026-05-03 21:02 | 37.61706 | -122.37870 | 20 ft | 10 kts | 7° |
| 2026-05-03 21:02 | 37.61771 | -122.37846 | 20 ft | 10 kts | 34° |
| 2026-05-03 21:02 | 37.61794 | -122.37770 | 20 ft | 10 kts | 96° |
| 2026-05-03 21:02 | 37.61774 | -122.37690 | 20 ft | 10 kts | 113° |
| 2026-05-03 21:03 | 37.61748 | -122.37609 | 20 ft | 10 kts | 112° |
| 2026-05-03 21:03 | 37.61723 | -122.37529 | 20 ft | 10 kts | 110° |
| 2026-05-03 21:03 | 37.61697 | -122.37453 | 20 ft | 10 kts | 117° |
| 2026-05-03 21:03 | 37.61659 | -122.37362 | 21 ft | 14 kts | 118° |
| 2026-05-03 21:04 | 37.61607 | -122.37245 | 22 ft | 16 kts | 118° |
| 2026-05-03 21:04 | 37.61556 | -122.37126 | 20 ft | 15 kts | 118° |
| 2026-05-03 21:04 | 37.61507 | -122.37010 | 20 ft | 14 kts | 117° |
| 2026-05-03 21:04 | 37.61462 | -122.36900 | 22 ft | 14 kts | 118° |
| 2026-05-03 21:05 | 37.61396 | -122.36818 | 20 ft | 13 kts | 138° |
| 2026-05-03 21:05 | 37.61343 | -122.36727 | 20 ft | 13 kts | 117° |
| 2026-05-03 21:05 | 37.61302 | -122.36629 | 21 ft | 12 kts | 117° |
| 2026-05-03 21:05 | 37.61263 | -122.36533 | 20 ft | 12 kts | 117° |
| 2026-05-03 21:06 | 37.61222 | -122.36440 | 20 ft | 12 kts | 118° |
| 2026-05-03 21:06 | 37.61186 | -122.36349 | 20 ft | 12 kts | 118° |
| 2026-05-03 21:06 | 37.61148 | -122.36262 | 20 ft | 11 kts | 118° |
| 2026-05-03 21:06 | 37.61112 | -122.36177 | 20 ft | 11 kts | 118° |
| 2026-05-03 21:07 | 37.61076 | -122.36094 | 20 ft | 11 kts | 118° |
| 2026-05-03 21:07 | 37.61058 | -122.36007 | 20 ft | 10 kts | 90° |
| 2026-05-03 21:07 | 37.61083 | -122.35925 | 21 ft | 10 kts | 51° |
| 2026-05-03 21:07 | 37.61137 | -122.35884 | 20 ft | 10 kts | 14° |
| 2026-05-03 21:08 | 37.61182 | -122.35891 | 20 ft | 9 kts | 336° |
| 2026-05-03 21:08 | 37.61219 | -122.35945 | 20 ft | 10 kts | 296° |
| 2026-05-03 21:08 | 37.61258 | -122.36000 | 20 ft | 10 kts | 284° |
| 2026-05-03 21:08 | 37.61278 | -122.36092 | 20 ft | 14 kts | 293° |
| 2026-05-03 21:09 | 37.61355 | -122.36288 | 20 ft | 44 kts | 297° |
| 2026-05-03 21:09 | 37.61527 | -122.36686 | 20 ft | 86 kts | 305° |
| 2026-05-03 21:09 | 37.61707 | -122.37196 | 20 ft | 115 kts | 293° |
| 2026-05-03 21:09 | 37.61980 | -122.37815 | 21 ft | 140 kts | 288° |
| 2026-05-03 21:10 | 37.62123 | -122.38577 | 21 ft | 159 kts | 283° |
| 2026-05-03 21:10 | 37.62397 | -122.39574 | 393 ft | 149 kts | 298° |
| 2026-05-03 21:10 | 37.63124 | -122.40521 | 648 ft | 156 kts | 332° |
| 2026-05-03 21:10 | 37.64163 | -122.40988 | 777 ft | 165 kts | 348° |
| 2026-05-03 21:11 | 37.65290 | -122.41211 | 1140 ft | 161 kts | 347° |
| 2026-05-03 21:11 | 37.66326 | -122.41780 | 1439 ft | 173 kts | 311° |
| 2026-05-03 21:11 | 37.66777 | -122.43188 | 1726 ft | 182 kts | 279° |
| 2026-05-03 21:11 | 37.67060 | -122.44856 | 1970 ft | 206 kts | 286° |
| 2026-05-03 21:12 | 37.67564 | -122.46660 | 2199 ft | 227 kts | 292° |
| 2026-05-03 21:12 | 37.68114 | -122.48548 | 2633 ft | 237 kts | 276° |
| 2026-05-03 21:12 | 37.67770 | -122.50612 | 2988 ft | 251 kts | 237° |
| 2026-05-03 21:12 | 37.66866 | -122.51795 | 3523 ft | 252 kts | 218° |
| 2026-05-03 21:13 | 37.65445 | -122.53139 | 4323 ft | 256 kts | 211° |
| 2026-05-03 21:13 | 37.63751 | -122.53818 | 5051 ft | 259 kts | 181° |
| 2026-05-03 21:13 | 37.61970 | -122.53482 | 5891 ft | 260 kts | 164° |
| 2026-05-03 21:13 | 37.60272 | -122.52733 | 6668 ft | 262 kts | 160° |
| 2026-05-03 21:14 | 37.58549 | -122.51896 | 7398 ft | 265 kts | 160° |
| 2026-05-03 21:14 | 37.56810 | -122.51059 | 8137 ft | 268 kts | 160° |
| 2026-05-03 21:14 | 37.55051 | -122.50237 | 8895 ft | 271 kts | 160° |
| 2026-05-03 21:14 | 37.53269 | -122.49423 | 9608 ft | 274 kts | 161° |
| 2026-05-03 21:15 | 37.51465 | -122.48607 | 10275 ft | 279 kts | 161° |
| 2026-05-03 21:15 | 37.49579 | -122.47717 | 10493 ft | 301 kts | 154° |
| 2026-05-03 21:15 | 37.47894 | -122.46080 | 10663 ft | 323 kts | 135° |
| 2026-05-03 21:15 | 37.46346 | -122.43999 | 10820 ft | 343 kts | 134° |
| 2026-05-03 21:16 | 37.44662 | -122.41699 | 11012 ft | 361 kts | 134° |
| 2026-05-03 21:16 | 37.42949 | -122.39346 | 11472 ft | 368 kts | 134° |
| 2026-05-03 21:16 | 37.41234 | -122.36993 | 12089 ft | 370 kts | 134° |
| 2026-05-03 21:16 | 37.39484 | -122.34598 | 12756 ft | 373 kts | 134° |
| 2026-05-03 21:17 | 37.37692 | -122.32155 | 13353 ft | 377 kts | 134° |
| 2026-05-03 21:17 | 37.36511 | -122.30548 | 13773 ft | 379 kts | 134° |
| 2026-05-03 21:17 | 37.34197 | -122.27404 | 14476 ft | 383 kts | 134° |
| 2026-05-03 21:17 | 37.32399 | -122.24966 | 15041 ft | 385 kts | 134° |
| 2026-05-03 21:18 | 37.30553 | -122.22465 | 15650 ft | 386 kts | 134° |
| 2026-05-03 21:18 | 37.28739 | -122.20011 | 16183 ft | 389 kts | 134° |
| 2026-05-03 21:18 | 37.26896 | -122.17518 | 16759 ft | 391 kts | 134° |
| 2026-05-03 21:18 | 37.25037 | -122.15007 | 17265 ft | 394 kts | 134° |
| 2026-05-03 21:19 | 37.23156 | -122.12468 | 17785 ft | 398 kts | 134° |
| 2026-05-03 21:19 | 37.21269 | -122.09923 | 18321 ft | 400 kts | 134° |
| 2026-05-03 21:19 | 37.19371 | -122.07365 | 18799 ft | 402 kts | 134° |
| 2026-05-03 21:19 | 37.17461 | -122.04792 | 19263 ft | 404 kts | 134° |
| 2026-05-03 21:20 | 37.15543 | -122.02211 | 19696 ft | 406 kts | 134° |
| 2026-05-03 21:20 | 37.13606 | -121.99606 | 20144 ft | 408 kts | 134° |
| 2026-05-03 21:20 | 37.11667 | -121.97000 | 20601 ft | 410 kts | 134° |
| 2026-05-03 21:20 | 37.09711 | -121.94375 | 21013 ft | 413 kts | 134° |
| 2026-05-03 21:21 | 37.07748 | -121.91741 | 21444 ft | 415 kts | 133° |
| 2026-05-03 21:21 | 37.05768 | -121.89087 | 21837 ft | 418 kts | 133° |
| 2026-05-03 21:21 | 37.03783 | -121.86428 | 22273 ft | 419 kts | 133° |
| 2026-05-03 21:21 | 37.01782 | -121.83750 | 22639 ft | 422 kts | 133° |
| 2026-05-03 21:22 | 37.00451 | -121.81971 | 22866 ft | 424 kts | 133° |
| 2026-05-03 21:22 | 36.98328 | -121.79133 | 23243 ft | 427 kts | 133° |
| 2026-05-03 21:22 | 36.96288 | -121.76411 | 23572 ft | 430 kts | 133° |
| 2026-05-03 21:23 | 36.94327 | -121.73795 | 23857 ft | 433 kts | 133° |
| 2026-05-03 21:23 | 36.92258 | -121.71037 | 24133 ft | 435 kts | 134° |
| 2026-05-03 21:23 | 36.90187 | -121.68278 | 24398 ft | 438 kts | 134° |
| 2026-05-03 21:23 | 36.88116 | -121.65524 | 24642 ft | 441 kts | 134° |
| 2026-05-03 21:24 | 36.86008 | -121.62721 | 24899 ft | 444 kts | 134° |
| 2026-05-03 21:24 | 36.83859 | -121.59866 | 25123 ft | 447 kts | 134° |
| 2026-05-03 21:24 | 36.81749 | -121.57065 | 25345 ft | 450 kts | 134° |
| 2026-05-03 21:24 | 36.79605 | -121.54221 | 25622 ft | 451 kts | 135° |
| 2026-05-03 21:25 | 36.77446 | -121.51361 | 25930 ft | 452 kts | 135° |
| 2026-05-03 21:25 | 36.75283 | -121.48498 | 25997 ft | 456 kts | 135° |
| 2026-05-03 21:25 | 36.73099 | -121.45611 | 26012 ft | 456 kts | 135° |
| 2026-05-03 21:25 | 36.70928 | -121.42741 | 26008 ft | 456 kts | 135° |
| 2026-05-03 21:26 | 36.68750 | -121.39864 | 26002 ft | 455 kts | 135° |
| 2026-05-03 21:26 | 36.66576 | -121.36996 | 26007 ft | 456 kts | 135° |
| 2026-05-03 21:26 | 36.64404 | -121.34132 | 26009 ft | 456 kts | 135° |
| 2026-05-03 21:26 | 36.62218 | -121.31252 | 26004 ft | 456 kts | 136° |
| 2026-05-03 21:27 | 36.60045 | -121.28393 | 26001 ft | 457 kts | 136° |
| 2026-05-03 21:27 | 36.57859 | -121.25517 | 26000 ft | 458 kts | 136° |
| 2026-05-03 21:27 | 36.55663 | -121.22631 | 25992 ft | 458 kts | 136° |
| 2026-05-03 21:27 | 36.53477 | -121.19759 | 25990 ft | 459 kts | 136° |
| 2026-05-03 21:28 | 36.51271 | -121.16864 | 25984 ft | 459 kts | 136° |
| 2026-05-03 21:28 | 36.49070 | -121.13976 | 25988 ft | 460 kts | 136° |
| 2026-05-03 21:28 | 36.46868 | -121.11087 | 25983 ft | 461 kts | 136° |
| 2026-05-03 21:28 | 36.44658 | -121.08196 | 25981 ft | 462 kts | 137° |
| 2026-05-03 21:29 | 36.42445 | -121.05287 | 25986 ft | 463 kts | 136° |
| 2026-05-03 21:29 | 36.40300 | -121.02308 | 25983 ft | 465 kts | 135° |
| 2026-05-03 21:29 | 36.38210 | -120.99296 | 25972 ft | 466 kts | 134° |
| 2026-05-03 21:29 | 36.36077 | -120.96186 | 25980 ft | 467 kts | 134° |
| 2026-05-03 21:30 | 36.33997 | -120.93152 | 25981 ft | 469 kts | 134° |
| 2026-05-03 21:30 | 36.31878 | -120.90078 | 25982 ft | 470 kts | 135° |
| 2026-05-03 21:30 | 36.29746 | -120.86999 | 25981 ft | 471 kts | 135° |
| 2026-05-03 21:30 | 36.27599 | -120.83914 | 25966 ft | 472 kts | 135° |
| 2026-05-03 21:31 | 36.25457 | -120.80845 | 25978 ft | 472 kts | 135° |
| 2026-05-03 21:31 | 36.23310 | -120.77775 | 25975 ft | 473 kts | 135° |
| 2026-05-03 21:31 | 36.21144 | -120.74682 | 25983 ft | 474 kts | 135° |
| 2026-05-03 21:31 | 36.18978 | -120.71592 | 25985 ft | 475 kts | 135° |
| 2026-05-03 21:32 | 36.16817 | -120.68511 | 25973 ft | 475 kts | 136° |
| 2026-05-03 21:32 | 36.14649 | -120.65422 | 25982 ft | 475 kts | 136° |
| 2026-05-03 21:32 | 36.12476 | -120.62328 | 25972 ft | 475 kts | 136° |
| 2026-05-03 21:32 | 36.10309 | -120.59246 | 25979 ft | 475 kts | 136° |
| 2026-05-03 21:33 | 36.08139 | -120.56162 | 25977 ft | 475 kts | 136° |
| 2026-05-03 21:33 | 36.05971 | -120.53083 | 25983 ft | 475 kts | 137° |
| 2026-05-03 21:33 | 36.03798 | -120.50002 | 25977 ft | 475 kts | 137° |
| 2026-05-03 21:33 | 36.01621 | -120.46917 | 25991 ft | 475 kts | 137° |
| 2026-05-03 21:34 | 35.99474 | -120.43875 | 25983 ft | 476 kts | 137° |
| 2026-05-03 21:34 | 35.97307 | -120.40808 | 25997 ft | 476 kts | 137° |
| 2026-05-03 21:34 | 35.95126 | -120.37723 | 25981 ft | 477 kts | 137° |
| 2026-05-03 21:34 | 35.92940 | -120.34629 | 25991 ft | 478 kts | 137° |
| 2026-05-03 21:35 | 35.90752 | -120.31540 | 25981 ft | 478 kts | 138° |
| 2026-05-03 21:35 | 35.88561 | -120.28463 | 25995 ft | 477 kts | 139° |
| 2026-05-03 21:35 | 35.86182 | -120.25645 | 25985 ft | 470 kts | 148° |
| 2026-05-03 21:35 | 35.83523 | -120.23367 | 25984 ft | 461 kts | 156° |
| 2026-05-03 21:36 | 35.80760 | -120.21362 | 25980 ft | 461 kts | 157° |
| 2026-05-03 21:36 | 35.78003 | -120.19348 | 25983 ft | 462 kts | 156° |
| 2026-05-03 21:36 | 35.75246 | -120.17302 | 25978 ft | 462 kts | 156° |
| 2026-05-03 21:36 | 35.72497 | -120.15235 | 25982 ft | 463 kts | 156° |
| 2026-05-03 21:37 | 35.69754 | -120.13164 | 25975 ft | 463 kts | 156° |
| 2026-05-03 21:37 | 35.67013 | -120.11100 | 25967 ft | 463 kts | 156° |
| 2026-05-03 21:37 | 35.64258 | -120.09023 | 25973 ft | 463 kts | 156° |
| 2026-05-03 21:37 | 35.61511 | -120.06956 | 25977 ft | 463 kts | 156° |
| 2026-05-03 21:38 | 35.58783 | -120.04903 | 25971 ft | 462 kts | 156° |
| 2026-05-03 21:38 | 35.56956 | -120.03528 | 25965 ft | 462 kts | 157° |
| 2026-05-03 21:38 | 35.54213 | -120.01462 | 25967 ft | 462 kts | 157° |
| 2026-05-03 21:38 | 35.51477 | -119.99402 | 25969 ft | 462 kts | 157° |
| 2026-05-03 21:39 | 35.48730 | -119.97335 | 25967 ft | 462 kts | 157° |
| 2026-05-03 21:39 | 35.45992 | -119.95275 | 25965 ft | 462 kts | 157° |
| 2026-05-03 21:39 | 35.43241 | -119.93207 | 25962 ft | 463 kts | 157° |
| 2026-05-03 21:39 | 35.40499 | -119.91147 | 25953 ft | 463 kts | 157° |
| 2026-05-03 21:40 | 35.37752 | -119.89084 | 25963 ft | 463 kts | 157° |
| 2026-05-03 21:40 | 35.35011 | -119.87025 | 25959 ft | 463 kts | 157° |
| 2026-05-03 21:40 | 35.32264 | -119.84966 | 25957 ft | 463 kts | 157° |
| 2026-05-03 21:40 | 35.29515 | -119.82910 | 25946 ft | 463 kts | 157° |
| 2026-05-03 21:41 | 35.26807 | -119.80734 | 25937 ft | 468 kts | 153° |
| 2026-05-03 21:41 | 35.24188 | -119.78344 | 25937 ft | 471 kts | 151° |
| 2026-05-03 21:41 | 35.21608 | -119.75867 | 25936 ft | 472 kts | 150° |
| 2026-05-03 21:41 | 35.19029 | -119.73367 | 25931 ft | 472 kts | 150° |
| 2026-05-03 21:42 | 35.16448 | -119.70888 | 25928 ft | 472 kts | 151° |
| 2026-05-03 21:42 | 35.13860 | -119.68433 | 25926 ft | 471 kts | 152° |
| 2026-05-03 21:42 | 35.11266 | -119.65997 | 25920 ft | 471 kts | 152° |
| 2026-05-03 21:42 | 35.08658 | -119.63564 | 25913 ft | 471 kts | 152° |
| 2026-05-03 21:43 | 35.06051 | -119.61138 | 25918 ft | 472 kts | 152° |
| 2026-05-03 21:43 | 35.03442 | -119.58713 | 25916 ft | 472 kts | 152° |
| 2026-05-03 21:43 | 35.00862 | -119.56315 | 25911 ft | 468 kts | 152° |
| 2026-05-03 21:43 | 34.98294 | -119.53923 | 25915 ft | 462 kts | 152° |
| 2026-05-03 21:44 | 34.95707 | -119.51519 | 25908 ft | 460 kts | 153° |
| 2026-05-03 21:44 | 34.93196 | -119.49195 | 25909 ft | 460 kts | 153° |
| 2026-05-03 21:44 | 34.90646 | -119.46843 | 25913 ft | 460 kts | 153° |
| 2026-05-03 21:44 | 34.88454 | -119.44861 | 25418 ft | 461 kts | 153° |
| 2026-05-03 21:45 | 34.85885 | -119.42571 | 24942 ft | 455 kts | 153° |
| 2026-05-03 21:45 | 34.83350 | -119.40315 | 24466 ft | 449 kts | 153° |
| 2026-05-03 21:45 | 34.80847 | -119.38082 | 24024 ft | 443 kts | 153° |
| 2026-05-03 21:45 | 34.78375 | -119.35874 | 23564 ft | 438 kts | 153° |
| 2026-05-03 21:46 | 34.75944 | -119.33702 | 23077 ft | 429 kts | 153° |
| 2026-05-03 21:46 | 34.73562 | -119.31584 | 22553 ft | 419 kts | 153° |
| 2026-05-03 21:46 | 34.71221 | -119.29536 | 22059 ft | 408 kts | 153° |
| 2026-05-03 21:46 | 34.68945 | -119.27555 | 21575 ft | 398 kts | 153° |
| 2026-05-03 21:47 | 34.66722 | -119.25620 | 21090 ft | 389 kts | 153° |
| 2026-05-03 21:47 | 34.64546 | -119.23727 | 20643 ft | 381 kts | 152° |
| 2026-05-03 21:47 | 34.62400 | -119.21874 | 20205 ft | 376 kts | 152° |
| 2026-05-03 21:47 | 34.60257 | -119.20033 | 19781 ft | 378 kts | 152° |
| 2026-05-03 21:48 | 34.58103 | -119.18184 | 19343 ft | 379 kts | 151° |
| 2026-05-03 21:48 | 34.55982 | -119.16357 | 18913 ft | 379 kts | 150° |
| 2026-05-03 21:48 | 34.53830 | -119.14462 | 18558 ft | 376 kts | 149° |
| 2026-05-03 21:48 | 34.51730 | -119.12595 | 18227 ft | 371 kts | 149° |
| 2026-05-03 21:49 | 34.49703 | -119.10787 | 17968 ft | 364 kts | 149° |
| 2026-05-03 21:49 | 34.47675 | -119.08987 | 17691 ft | 359 kts | 149° |
| 2026-05-03 21:49 | 34.45690 | -119.07233 | 17416 ft | 357 kts | 149° |
| 2026-05-03 21:49 | 34.43651 | -119.05437 | 17029 ft | 357 kts | 149° |
| 2026-05-03 21:50 | 34.41643 | -119.03692 | 16685 ft | 355 kts | 149° |
| 2026-05-03 21:50 | 34.39636 | -119.01957 | 16317 ft | 354 kts | 149° |
| 2026-05-03 21:50 | 34.37633 | -119.00226 | 15957 ft | 353 kts | 149° |
| 2026-05-03 21:50 | 34.35633 | -118.98498 | 15591 ft | 352 kts | 149° |
| 2026-05-03 21:51 | 34.33647 | -118.96771 | 15236 ft | 351 kts | 148° |
| 2026-05-03 21:51 | 34.31695 | -118.95005 | 14876 ft | 351 kts | 147° |
| 2026-05-03 21:51 | 34.29749 | -118.93224 | 14521 ft | 349 kts | 147° |
| 2026-05-03 21:51 | 34.27822 | -118.91468 | 14165 ft | 346 kts | 147° |
| 2026-05-03 21:52 | 34.25902 | -118.89728 | 13804 ft | 343 kts | 147° |
| 2026-05-03 21:52 | 34.24008 | -118.87995 | 13411 ft | 340 kts | 147° |
| 2026-05-03 21:52 | 34.22192 | -118.86324 | 13050 ft | 337 kts | 147° |
| 2026-05-03 21:52 | 34.20452 | -118.84722 | 12708 ft | 333 kts | 147° |
| 2026-05-03 21:53 | 34.18629 | -118.83048 | 12364 ft | 326 kts | 147° |
| 2026-05-03 21:53 | 34.16876 | -118.81441 | 12025 ft | 315 kts | 147° |
| 2026-05-03 21:53 | 34.15197 | -118.79787 | 11705 ft | 307 kts | 143° |
| 2026-05-03 21:53 | 34.13646 | -118.78093 | 11393 ft | 298 kts | 142° |
| 2026-05-03 21:54 | 34.12138 | -118.76414 | 11107 ft | 289 kts | 142° |
| 2026-05-03 21:54 | 34.10667 | -118.74784 | 10826 ft | 285 kts | 142° |
| 2026-05-03 21:54 | 34.09210 | -118.73182 | 10553 ft | 282 kts | 142° |
| 2026-05-03 21:54 | 34.07758 | -118.71598 | 10276 ft | 279 kts | 142° |
| 2026-05-03 21:55 | 34.06322 | -118.70039 | 9999 ft | 276 kts | 142° |
| 2026-05-03 21:55 | 34.04912 | -118.68511 | 9705 ft | 271 kts | 142° |
| 2026-05-03 21:55 | 34.03564 | -118.66940 | 9405 ft | 273 kts | 130° |
| 2026-05-03 21:55 | 34.02809 | -118.64828 | 9166 ft | 275 kts | 106° |
| 2026-05-03 21:56 | 34.02555 | -118.62915 | 8935 ft | 276 kts | 101° |
| 2026-05-03 21:56 | 34.02369 | -118.60766 | 8669 ft | 276 kts | 99° |
| 2026-05-03 21:56 | 34.02176 | -118.58484 | 8403 ft | 275 kts | 100° |
| 2026-05-03 21:56 | 34.01968 | -118.56170 | 8121 ft | 279 kts | 100° |
| 2026-05-03 21:57 | 34.01761 | -118.53848 | 7859 ft | 277 kts | 100° |
| 2026-05-03 21:57 | 34.01550 | -118.51549 | 7629 ft | 274 kts | 100° |
| 2026-05-03 21:57 | 34.01337 | -118.49281 | 7390 ft | 271 kts | 100° |
| 2026-05-03 21:57 | 34.01124 | -118.47044 | 7161 ft | 269 kts | 100° |
| 2026-05-03 21:58 | 34.01090 | -118.44788 | 6895 ft | 270 kts | 85° |
| 2026-05-03 21:58 | 34.01437 | -118.42662 | 6723 ft | 267 kts | 81° |
| 2026-05-03 21:58 | 34.01830 | -118.40589 | 6489 ft | 265 kts | 81° |
| 2026-05-03 21:58 | 34.02228 | -118.38419 | 6141 ft | 267 kts | 82° |
| 2026-05-03 21:59 | 34.02614 | -118.36240 | 5777 ft | 269 kts | 81° |
| 2026-05-03 21:59 | 34.02944 | -118.34022 | 5398 ft | 266 kts | 85° |
| 2026-05-03 21:59 | 34.03161 | -118.31813 | 4972 ft | 266 kts | 86° |
| 2026-05-03 21:59 | 34.03366 | -118.29591 | 4492 ft | 267 kts | 86° |
| 2026-05-03 22:00 | 34.03590 | -118.27369 | 4000 ft | 268 kts | 85° |
| 2026-05-03 22:00 | 34.03815 | -118.25152 | 3684 ft | 263 kts | 85° |
| 2026-05-03 22:00 | 34.04034 | -118.23022 | 3591 ft | 248 kts | 86° |
| 2026-05-03 22:00 | 34.04241 | -118.21022 | 3582 ft | 235 kts | 86° |
| 2026-05-03 22:01 | 34.04440 | -118.19107 | 3551 ft | 226 kts | 86° |
| 2026-05-03 22:01 | 34.04636 | -118.17220 | 3583 ft | 228 kts | 86° |
| 2026-05-03 22:01 | 34.04587 | -118.15351 | 3554 ft | 222 kts | 115° |
| 2026-05-03 22:01 | 34.03654 | -118.14028 | 3588 ft | 211 kts | 154° |
| 2026-05-03 22:02 | 34.02257 | -118.13536 | 3583 ft | 211 kts | 179° |
| 2026-05-03 22:02 | 34.00829 | -118.13801 | 3589 ft | 214 kts | 200° |
| 2026-05-03 22:02 | 33.99434 | -118.14451 | 3600 ft | 213 kts | 203° |
| 2026-05-03 22:02 | 33.98190 | -118.15083 | 3576 ft | 207 kts | 204° |
| 2026-05-03 22:03 | 33.96912 | -118.15851 | 3564 ft | 199 kts | 221° |
| 2026-05-03 22:03 | 33.96251 | -118.17232 | 3552 ft | 195 kts | 256° |
| 2026-05-03 22:03 | 33.95953 | -118.18843 | 3346 ft | 200 kts | 255° |
| 2026-05-03 22:03 | 33.95636 | -118.20469 | 3077 ft | 199 kts | 257° |
| 2026-05-03 22:04 | 33.95413 | -118.22088 | 2809 ft | 195 kts | 261° |
| 2026-05-03 22:04 | 33.95244 | -118.23658 | 2544 ft | 184 kts | 262° |
| 2026-05-03 22:04 | 33.95091 | -118.25146 | 2308 ft | 173 kts | 262° |
| 2026-05-03 22:04 | 33.94949 | -118.26517 | 2079 ft | 162 kts | 262° |
| 2026-05-03 22:05 | 33.94817 | -118.27800 | 1881 ft | 152 kts | 262° |
| 2026-05-03 22:05 | 33.94688 | -118.29049 | 1679 ft | 149 kts | 263° |
| 2026-05-03 22:05 | 33.94560 | -118.30276 | 1479 ft | 147 kts | 263° |
| 2026-05-03 22:05 | 33.94434 | -118.31503 | 1276 ft | 148 kts | 263° |
| 2026-05-03 22:06 | 33.94306 | -118.32736 | 1078 ft | 151 kts | 265° |
| 2026-05-03 22:06 | 33.94176 | -118.33998 | 869 ft | 151 kts | 264° |
| 2026-05-03 22:06 | 33.94046 | -118.35262 | 635 ft | 151 kts | 265° |
| 2026-05-03 22:06 | 33.93922 | -118.36497 | 407 ft | 148 kts | 269° |
| 2026-05-03 22:07 | 33.93801 | -118.37669 | 256 ft | 142 kts | 266° |
| 2026-05-03 22:07 | 33.93686 | -118.38829 | 103 ft | 136 kts | 266° |
| 2026-05-03 22:07 | 33.93628 | -118.39142 | 101 ft | 30 kts | 262° |
| 2026-05-03 22:07 | 33.93621 | -118.39378 | 105 ft | 27 kts | 265° |
| 2026-05-03 22:08 | 33.93601 | -118.39598 | 101 ft | 24 kts | 265° |
| 2026-05-03 22:08 | 33.93599 | -118.39682 | 102 ft | 0 kts | 266° |
| 2026-05-03 22:08 | 33.93602 | -118.39690 | 104 ft | 1 kts | 280° |
| 2026-05-03 22:08 | 33.93602 | -118.39691 | 104 ft | 0 kts | 270° |
| 2026-05-03 22:09 | 33.93602 | -118.39690 | 104 ft | 1 kts | 270° |
| 2026-05-03 22:09 | 33.93594 | -118.39727 | 110 ft | 12 kts | 252° |
| 2026-05-03 22:09 | 33.93616 | -118.39831 | 110 ft | 14 kts | 291° |
| 2026-05-03 22:10 | 33.93696 | -118.39874 | 106 ft | 5 kts | 43° |
| 2026-05-03 22:10 | 33.93707 | -118.39830 | 106 ft | 5 kts | 93° |
| 2026-05-03 22:10 | 33.93693 | -118.39788 | 105 ft | 7 kts | 101° |
| 2026-05-03 22:10 | 33.93697 | -118.39717 | 106 ft | 11 kts | 83° |
| 2026-05-03 22:11 | 33.93713 | -118.39604 | 104 ft | 16 kts | 80° |
| 2026-05-03 22:11 | 33.93736 | -118.39456 | 104 ft | 20 kts | 73° |
| 2026-05-03 22:11 | 33.93834 | -118.39385 | 106 ft | 20 kts | 5° |
| 2026-05-03 22:11 | 33.93937 | -118.39399 | 100 ft | 23 kts | 324° |
| 2026-05-03 22:12 | 33.93932 | -118.39557 | 100 ft | 16 kts | 226° |
| 2026-05-03 22:12 | 33.93875 | -118.39649 | 105 ft | 14 kts | 230° |
| 2026-05-03 22:12 | 33.93817 | -118.39733 | 109 ft | 13 kts | 253° |
| 2026-05-03 22:12 | 33.93830 | -118.39786 | 108 ft | 18 kts | 307° |
| 2026-05-03 22:13 | 33.93869 | -118.40193 | 102 ft | 64 kts | 266° |
| 2026-05-03 22:13 | 33.93773 | -118.40861 | 103 ft | 92 kts | 261° |
| 2026-05-03 22:13 | 33.93670 | -118.41275 | 108 ft | 0 kts | 268° |